createdAt,value
2023-03-05T00:01:12.688Z,25.60
2023-03-05T00:03:39.490Z,21.50
2023-03-05T00:06:06.843Z,26.73
2023-03-05T00:08:34.300Z,27.08
2023-03-05T00:11:07.504Z,20.73
2023-03-05T00:13:34.724Z,28.20
2023-03-05T00:16:06.479Z,26.58
2023-03-05T00:18:33.669Z,29.10
2023-03-05T00:21:00.285Z,30.10
2023-03-05T00:23:27.197Z,29.30
2023-03-05T00:25:54.124Z,23.42
2023-03-05T00:28:20.722Z,25.60
2023-03-05T00:30:47.724Z,28.40
2023-03-05T00:33:14.934Z,27.67
2023-03-05T00:35:46.526Z,23.85
2023-03-05T00:38:13.607Z,21.27
2023-03-05T00:40:41.526Z,23.80
2023-03-05T00:43:09.287Z,18.58
2023-03-05T00:45:36.041Z,37.08
2023-03-05T00:48:03.444Z,27.65
2023-03-05T00:50:30.106Z,28.92
2023-03-05T00:52:56.722Z,28.13
2023-03-05T00:55:23.408Z,22.35
2023-03-05T00:57:50.058Z,22.67
2023-03-05T01:00:17.381Z,17.08
2023-03-05T01:02:44.081Z,18.02
2023-03-05T01:05:13.653Z,13.27
2023-03-05T01:07:41.075Z,25.75
2023-03-05T01:10:09.346Z,15.15
2023-03-05T01:12:35.962Z,19.35
2023-03-05T01:15:03.359Z,14.60
2023-03-05T01:17:30.213Z,25.48
2023-03-05T01:19:56.933Z,15.32
2023-03-05T01:22:23.575Z,19.05
2023-03-05T01:24:50.187Z,20.17
2023-03-05T01:27:16.779Z,22.90
2023-03-05T01:29:43.411Z,20.95
2023-03-05T01:32:10.116Z,15.20
2023-03-05T01:34:37.868Z,17.92
2023-03-05T01:37:04.750Z,12.48
2023-03-05T01:39:31.377Z,16.80
2023-03-05T01:41:57.984Z,11.05
2023-03-05T01:44:28.040Z,11.35
2023-03-05T01:46:55.004Z,12.57
2023-03-05T01:49:28.939Z,14.52
2023-03-05T01:52:17.609Z,22.80
2023-03-05T01:54:52.088Z,11.05
2023-03-05T01:57:24.857Z,9.27
2023-03-05T01:59:55.146Z,13.70
2023-03-05T02:02:25.848Z,10.65
2023-03-05T02:05:02.911Z,15.20
2023-03-05T02:07:31.149Z,15.45
2023-03-05T02:09:57.723Z,16.73
2023-03-05T02:12:24.480Z,10.70
2023-03-05T02:14:59.086Z,12.07
2023-03-05T02:17:27.882Z,14.38
2023-03-05T02:20:03.351Z,11.55
2023-03-05T02:22:29.958Z,16.73
2023-03-05T02:24:56.574Z,17.27
2023-03-05T02:27:34.881Z,13.35
2023-03-05T02:30:02.162Z,13.88
2023-03-05T02:32:28.798Z,10.43
2023-03-05T02:34:55.396Z,12.02
2023-03-05T02:37:22.077Z,11.63
2023-03-05T02:39:48.718Z,20.45
2023-03-05T02:42:15.384Z,9.65
2023-03-05T02:44:41.952Z,15.45
2023-03-05T02:47:08.524Z,15.88
2023-03-05T02:49:35.105Z,20.52
2023-03-05T02:52:01.746Z,19.40
2023-03-05T02:54:28.323Z,12.63
2023-03-05T02:56:54.896Z,20.27
2023-03-05T02:59:21.519Z,7.25
2023-03-05T03:01:48.156Z,11.98
2023-03-05T03:04:14.799Z,15.85
2023-03-05T03:06:41.457Z,12.10
2023-03-05T03:09:08.087Z,18.30
2023-03-05T03:11:34.963Z,16.45
2023-03-05T03:14:01.688Z,10.73
2023-03-05T03:16:29.032Z,13.25
2023-03-05T03:18:55.639Z,12.80
2023-03-05T03:21:25.194Z,16.08
2023-03-05T03:23:51.876Z,11.80
2023-03-05T03:26:19.281Z,14.13
2023-03-05T03:28:46.105Z,16.48
2023-03-05T03:31:12.798Z,12.32
2023-03-05T03:33:39.455Z,12.90
2023-03-05T03:36:06.543Z,10.35
2023-03-05T03:38:33.272Z,9.52
2023-03-05T03:40:59.892Z,17.52
2023-03-05T03:43:26.535Z,14.27
2023-03-05T03:45:53.180Z,20.90
2023-03-05T03:48:19.855Z,9.98
2023-03-05T03:50:46.449Z,16.15
2023-03-05T03:53:14.384Z,9.68
2023-03-05T03:55:46.546Z,11.38
2023-03-05T03:58:13.568Z,14.52
2023-03-05T04:00:40.809Z,7.82
2023-03-05T04:03:07.980Z,6.13
2023-03-05T04:05:34.672Z,8.88
2023-03-05T04:08:01.499Z,8.98
2023-03-05T04:10:28.072Z,11.05
2023-03-05T04:12:54.688Z,11.43
2023-03-05T04:15:21.334Z,11.05
2023-03-05T04:17:47.982Z,18.50
2023-03-05T04:20:14.558Z,9.77
2023-03-05T04:22:41.203Z,19.90
2023-03-05T04:25:08.569Z,13.55
2023-03-05T04:27:37.565Z,8.98
2023-03-05T04:30:05.112Z,10.32
2023-03-05T04:32:31.845Z,7.47
2023-03-05T04:35:00.170Z,13.63
2023-03-05T04:37:26.838Z,15.23
2023-03-05T04:39:53.515Z,8.07
2023-03-05T04:42:21.177Z,16.08
2023-03-05T04:44:49.581Z,13.38
2023-03-05T04:47:17.154Z,7.97
2023-03-05T04:49:44.239Z,12.13
2023-03-05T04:52:12.518Z,11.43
2023-03-05T04:54:39.446Z,9.63
2023-03-05T04:57:06.473Z,10.98
2023-03-05T04:59:33.211Z,14.65
2023-03-05T05:01:59.956Z,9.05
2023-03-05T05:04:26.678Z,13.82
2023-03-05T05:06:56.252Z,8.38
2023-03-05T05:09:24.781Z,13.82
2023-03-05T05:11:51.742Z,20.33
2023-03-05T05:14:18.616Z,9.70
2023-03-05T05:16:45.217Z,9.90
2023-03-05T05:19:12.096Z,8.85
2023-03-05T05:21:38.758Z,19.67
2023-03-05T05:24:05.852Z,9.52
2023-03-05T05:26:32.500Z,8.07
2023-03-05T05:29:00.787Z,14.85
2023-03-05T05:31:27.536Z,15.00
2023-03-05T05:33:54.192Z,6.88
2023-03-05T05:36:22.393Z,11.85
2023-03-05T05:38:49.330Z,13.70
2023-03-05T05:41:18.730Z,10.80
2023-03-05T05:43:45.983Z,11.45
2023-03-05T05:46:15.634Z,8.57
2023-03-05T05:48:43.537Z,13.43
2023-03-05T05:51:15.133Z,8.82
2023-03-05T05:53:43.083Z,12.10
2023-03-05T05:56:11.468Z,15.75
2023-03-05T05:58:40.008Z,16.33
2023-03-05T06:01:17.734Z,14.10
2023-03-05T06:03:44.782Z,10.68
2023-03-05T06:06:13.757Z,13.32
2023-03-05T06:08:40.870Z,18.95
2023-03-05T06:11:07.958Z,11.63
2023-03-05T06:13:35.098Z,9.98
2023-03-05T06:16:04.864Z,11.75
2023-03-05T06:18:32.001Z,9.98
2023-03-05T06:21:03.897Z,6.30
2023-03-05T06:23:30.715Z,4.72
2023-03-05T06:26:02.490Z,13.90
2023-03-05T06:28:29.715Z,14.63
2023-03-05T06:31:04.241Z,10.10
2023-03-05T06:33:31.365Z,16.65
2023-03-05T06:35:58.423Z,7.72
2023-03-05T06:38:25.494Z,12.80
2023-03-05T06:40:52.378Z,7.10
2023-03-05T06:43:18.999Z,12.05
2023-03-05T06:45:45.858Z,9.05
2023-03-05T06:48:12.911Z,12.52
2023-03-05T06:50:39.659Z,15.63
2023-03-05T06:53:06.278Z,12.10
2023-03-05T06:55:39.706Z,7.57
2023-03-05T06:58:07.143Z,6.15
2023-03-05T07:00:34.484Z,7.75
2023-03-05T07:03:01.098Z,9.80
2023-03-05T07:05:27.877Z,6.85
2023-03-05T07:07:54.476Z,5.72
2023-03-05T07:10:21.278Z,6.43
2023-03-05T07:12:48.010Z,11.57
2023-03-05T07:15:14.709Z,8.65
2023-03-05T07:17:41.378Z,15.38
2023-03-05T07:20:08.947Z,10.90
2023-03-05T07:22:38.225Z,9.18
2023-03-05T07:25:06.069Z,10.82
2023-03-05T07:27:37.386Z,9.70
2023-03-05T07:30:05.275Z,7.65
2023-03-05T07:32:34.765Z,9.52
2023-03-05T07:35:01.572Z,7.93
2023-03-05T07:37:28.198Z,10.80
2023-03-05T07:39:54.761Z,4.50
2023-03-05T07:42:21.389Z,10.80
2023-03-05T07:44:48.424Z,5.05
2023-03-05T07:47:15.428Z,4.35
2023-03-05T07:49:42.194Z,12.25
2023-03-05T07:52:09.608Z,7.28
2023-03-05T07:54:38.974Z,13.75
2023-03-05T07:57:07.182Z,11.48
2023-03-05T07:59:33.824Z,17.85
2023-03-05T08:02:00.776Z,8.50
2023-03-05T08:04:27.721Z,12.32
2023-03-05T08:06:54.327Z,7.65
2023-03-05T08:09:20.961Z,7.32
2023-03-05T08:11:47.643Z,9.90
2023-03-05T08:14:14.253Z,10.80
2023-03-05T08:16:41.326Z,7.38
2023-03-05T08:19:08.404Z,12.75
2023-03-05T08:21:36.453Z,7.90
2023-03-05T08:24:06.462Z,8.35
2023-03-05T08:26:37.712Z,8.60
2023-03-05T08:29:05.392Z,6.03
2023-03-05T08:31:32.908Z,7.20
2023-03-05T08:34:01.739Z,4.90
2023-03-05T08:36:29.340Z,11.85
2023-03-05T08:38:56.304Z,10.60
2023-03-05T08:41:22.929Z,8.43
2023-03-05T08:43:49.623Z,9.35
2023-03-05T08:46:17.225Z,7.55
2023-03-05T08:48:44.076Z,4.88
2023-03-05T08:51:25.858Z,8.27
2023-03-05T08:53:54.489Z,6.03
2023-03-05T08:56:21.541Z,8.10
2023-03-05T08:58:48.375Z,10.27
2023-03-05T09:01:15.375Z,16.40
2023-03-05T09:03:42.218Z,4.15
2023-03-05T09:06:10.950Z,10.30
2023-03-05T09:08:37.646Z,11.68
2023-03-05T09:11:06.659Z,6.47
2023-03-05T09:13:33.885Z,5.38
2023-03-05T09:16:06.640Z,10.70
2023-03-05T09:18:36.687Z,4.80
2023-03-05T09:21:08.458Z,6.55
2023-03-05T09:23:35.151Z,8.10
2023-03-05T09:26:02.439Z,12.70
2023-03-05T09:28:29.188Z,4.78
2023-03-05T09:30:55.816Z,4.70
2023-03-05T09:33:22.403Z,2.53
2023-03-05T09:35:49.027Z,2.97
2023-03-05T09:38:16.002Z,5.82
2023-03-05T09:40:42.698Z,6.55
2023-03-05T09:43:32.175Z,7.47
2023-03-05T09:46:32.929Z,5.35
2023-03-05T09:49:12.328Z,6.40
2023-03-05T09:51:41.494Z,14.15
2023-03-05T09:54:24.943Z,10.57
2023-03-05T09:56:58.711Z,3.75
2023-03-05T09:59:28.649Z,6.95
2023-03-05T10:02:12.600Z,14.45
2023-03-05T10:04:44.299Z,6.32
2023-03-05T10:07:27.548Z,4.40
2023-03-05T10:10:31.513Z,4.35
2023-03-05T10:13:01.995Z,5.53
2023-03-05T10:15:39.836Z,7.70
2023-03-05T10:18:23.147Z,8.95
2023-03-05T10:20:56.537Z,5.63
2023-03-05T10:23:37.563Z,6.93
2023-03-05T10:26:14.644Z,5.80
2023-03-05T10:29:27.076Z,7.45
2023-03-05T10:31:53.731Z,5.68
2023-03-05T10:34:40.778Z,7.85
2023-03-05T10:37:16.500Z,5.80
2023-03-05T10:40:06.136Z,2.90
2023-03-05T10:42:52.046Z,13.43
2023-03-05T10:45:23.747Z,9.77
2023-03-05T10:48:12.864Z,8.00
2023-03-05T10:50:47.533Z,7.95
2023-03-05T10:53:26.284Z,11.07
2023-03-05T10:55:56.266Z,5.70
2023-03-05T10:58:24.961Z,8.30
2023-03-05T11:01:09.975Z,7.07
2023-03-05T11:03:52.600Z,6.05
2023-03-05T11:08:54.070Z,8.70
2023-03-05T11:11:23.158Z,8.05
2023-03-05T11:13:55.352Z,7.32
2023-03-05T11:16:27.097Z,4.82
2023-03-05T11:19:15.280Z,5.40
2023-03-05T11:21:43.770Z,10.38
2023-03-05T11:24:19.601Z,3.47
2023-03-05T11:26:56.493Z,4.53
2023-03-05T11:29:26.430Z,2.30
2023-03-05T11:32:16.122Z,11.85
2023-03-05T11:34:48.223Z,6.18
2023-03-05T11:37:29.712Z,12.95
2023-03-05T11:40:18.787Z,7.20
2023-03-05T11:43:02.627Z,12.02
2023-03-05T11:45:37.143Z,9.05
2023-03-05T11:48:17.286Z,7.30
2023-03-05T11:50:49.826Z,9.15
2023-03-05T11:53:25.872Z,5.13
2023-03-05T11:56:09.226Z,6.32
2023-03-05T11:58:41.778Z,10.73
2023-03-05T12:01:23.866Z,11.27
2023-03-05T12:03:55.940Z,5.70
2023-03-05T12:06:48.713Z,10.27
2023-03-05T12:12:24.559Z,9.93
2023-03-05T12:15:01.910Z,8.13
2023-03-05T12:18:04.419Z,6.43
2023-03-05T12:21:03.487Z,7.60
2023-03-05T12:24:01.890Z,8.82
2023-03-05T12:26:53.511Z,7.07
2023-03-05T12:29:54.855Z,8.15
2023-03-05T12:32:39.595Z,6.35
2023-03-05T12:35:27.616Z,8.23
2023-03-05T12:38:25.676Z,12.32
2023-03-05T12:41:28.219Z,6.28
2023-03-05T12:44:15.650Z,4.93
2023-03-05T12:46:44.005Z,5.70
2023-03-05T12:49:36.699Z,7.18
2023-03-05T12:52:25.888Z,5.85
2023-03-05T12:55:15.817Z,6.32
2023-03-05T12:57:45.836Z,7.82
2023-03-05T13:00:27.891Z,10.07
2023-03-05T13:03:00.558Z,8.60
2023-03-05T13:05:36.370Z,9.65
2023-03-05T13:08:45.251Z,10.52
2023-03-05T13:11:33.754Z,10.00
2023-03-05T13:14:24.084Z,8.45
2023-03-05T13:16:57.383Z,8.70
2023-03-05T13:19:25.074Z,6.35
2023-03-05T13:22:08.735Z,7.70
2023-03-05T13:24:41.267Z,11.35
2023-03-05T13:27:34.236Z,4.18
2023-03-05T13:30:06.841Z,8.07
2023-03-05T13:32:36.886Z,7.55
2023-03-05T13:35:16.251Z,15.18
2023-03-05T13:38:00.040Z,6.30
2023-03-05T13:40:35.123Z,8.98
2023-03-05T13:43:22.859Z,7.63
2023-03-05T13:45:56.761Z,5.60
2023-03-05T13:48:40.196Z,6.03
2023-03-05T13:51:09.554Z,12.90
2023-03-05T13:53:40.024Z,5.03
2023-03-05T13:56:20.573Z,7.53
2023-03-05T13:58:49.087Z,6.63
2023-03-05T14:01:29.846Z,7.07
2023-03-05T14:04:20.919Z,7.15
2023-03-05T14:07:02.021Z,6.18
2023-03-05T14:09:40.083Z,3.28
2023-03-05T14:12:07.218Z,6.78
2023-03-05T14:14:44.360Z,6.22
2023-03-05T14:17:32.835Z,5.82
2023-03-05T14:20:21.553Z,14.02
2023-03-05T14:22:50.714Z,6.15
2023-03-05T14:25:35.194Z,7.57
2023-03-05T14:28:27.422Z,14.13
2023-03-05T14:31:12.499Z,13.88
2023-03-05T14:33:53.285Z,5.75
2023-03-05T14:36:25.877Z,4.85
2023-03-05T14:38:53.820Z,11.15
2023-03-05T14:41:32.486Z,5.55
2023-03-05T14:43:59.286Z,8.10
2023-03-05T14:46:25.959Z,6.47
2023-03-05T14:48:52.794Z,3.45
2023-03-05T14:51:19.411Z,8.75
2023-03-05T14:53:48.733Z,6.93
2023-03-05T14:56:23.840Z,8.57
2023-03-05T14:58:50.441Z,9.93
2023-03-05T15:01:17.534Z,6.28
2023-03-05T15:03:45.041Z,7.97
2023-03-05T15:06:27.871Z,7.45
2023-03-05T15:08:55.370Z,7.25
2023-03-05T15:11:22.725Z,4.70
2023-03-05T15:13:52.769Z,8.27
2023-03-05T15:16:23.077Z,4.90
2023-03-05T15:18:50.025Z,17.85
2023-03-05T15:21:16.713Z,10.68
2023-03-05T15:23:44.630Z,3.45
2023-03-05T15:26:14.398Z,14.68
2023-03-05T15:28:41.604Z,9.02
2023-03-05T15:31:08.659Z,7.78
2023-03-05T15:33:35.544Z,9.77
2023-03-05T15:36:02.154Z,8.30
2023-03-05T15:38:28.884Z,7.60
2023-03-05T15:40:56.367Z,8.98
2023-03-05T15:43:25.938Z,6.10
2023-03-05T15:45:59.014Z,7.20
2023-03-05T15:48:25.612Z,6.22
2023-03-05T15:50:52.168Z,5.82
2023-03-05T15:53:19.315Z,3.90
2023-03-05T15:55:46.211Z,13.50
2023-03-05T15:58:17.158Z,6.57
2023-03-05T16:00:44.627Z,7.00
2023-03-05T16:03:11.492Z,4.82
2023-03-05T16:05:39.424Z,10.70
2023-03-05T16:08:06.997Z,8.05
2023-03-05T16:10:37.073Z,6.65
2023-03-05T16:13:11.238Z,6.93
2023-03-05T16:15:39.660Z,10.88
2023-03-05T16:18:16.235Z,9.38
2023-03-05T16:20:46.459Z,8.05
2023-03-05T16:23:13.282Z,5.68
2023-03-05T16:25:40.050Z,8.32
2023-03-05T16:28:06.732Z,8.57
2023-03-05T16:30:33.471Z,11.65
2023-03-05T16:33:00.389Z,8.55
2023-03-05T16:35:27.197Z,11.45
2023-03-05T16:37:53.812Z,16.65
2023-03-05T16:40:20.583Z,12.82
2023-03-05T16:42:47.326Z,11.70
2023-03-05T16:45:14.008Z,11.73
2023-03-05T16:47:40.979Z,7.00
2023-03-05T16:50:09.741Z,9.35
2023-03-05T16:52:36.910Z,8.48
2023-03-05T16:55:04.901Z,8.52
2023-03-05T16:57:31.775Z,4.35
2023-03-05T16:59:58.719Z,11.82
2023-03-05T17:02:25.329Z,8.65
2023-03-05T17:04:51.929Z,36.00
2023-03-05T17:07:18.649Z,32.20
2023-03-05T17:09:47.824Z,51.03
2023-03-05T17:12:14.401Z,47.22
2023-03-05T17:14:41.105Z,50.30
2023-03-05T17:17:07.946Z,13.82
2023-03-05T17:19:34.650Z,21.52
2023-03-05T17:22:01.274Z,27.25
2023-03-05T17:24:27.935Z,25.42
2023-03-05T17:26:54.504Z,12.98
2023-03-05T17:29:22.573Z,11.98
2023-03-05T17:31:53.252Z,12.90
2023-03-05T17:34:33.320Z,17.05
2023-03-05T17:37:02.046Z,17.08
2023-03-05T17:39:29.085Z,13.65
2023-03-05T17:41:55.728Z,7.28
2023-03-05T17:44:22.306Z,10.85
2023-03-05T17:46:48.916Z,6.93
2023-03-05T17:49:15.475Z,6.88
2023-03-05T17:51:42.102Z,9.43
2023-03-05T17:54:08.716Z,8.52
2023-03-05T17:56:35.345Z,9.13
2023-03-05T17:59:02.059Z,4.20
2023-03-05T18:01:32.256Z,14.65
2023-03-05T18:03:59.339Z,11.50
2023-03-05T18:06:26.394Z,9.27
2023-03-05T18:08:53.114Z,5.90
2023-03-05T18:11:20.302Z,9.18
2023-03-05T18:13:46.918Z,15.70
2023-03-05T18:16:16.985Z,10.25
2023-03-05T18:18:44.783Z,9.48
2023-03-05T18:21:11.559Z,10.32
2023-03-05T18:23:38.125Z,12.85
2023-03-05T18:26:04.761Z,10.15
2023-03-05T18:28:31.701Z,10.30
2023-03-05T18:30:58.392Z,11.95
2023-03-05T18:33:25.734Z,13.70
2023-03-05T18:35:53.053Z,14.65
2023-03-05T18:38:23.985Z,11.02
2023-03-05T18:40:51.565Z,9.57
2023-03-05T18:43:22.764Z,11.75
2023-03-05T18:45:54.643Z,14.80
2023-03-05T18:48:21.433Z,10.15
2023-03-05T18:50:52.594Z,11.00
2023-03-05T18:53:19.830Z,13.30
2023-03-05T18:55:46.601Z,13.45
2023-03-05T18:58:17.531Z,8.57
2023-03-05T19:00:46.989Z,15.13
2023-03-05T19:03:15.004Z,10.32
2023-03-05T19:05:42.480Z,11.80
2023-03-05T19:08:09.178Z,13.00
2023-03-05T19:10:36.468Z,11.25
2023-03-05T19:13:08.076Z,13.82
2023-03-05T19:15:34.721Z,11.10
2023-03-05T19:18:01.353Z,9.55
2023-03-05T19:20:27.956Z,11.82
2023-03-05T19:22:55.818Z,11.85
2023-03-05T19:25:22.590Z,10.90
2023-03-05T19:27:49.252Z,12.13
2023-03-05T19:30:16.384Z,8.00
2023-03-05T19:32:43.073Z,9.90
2023-03-05T19:35:15.109Z,9.15
2023-03-05T19:37:41.929Z,16.58
2023-03-05T19:40:09.354Z,10.35
2023-03-05T19:42:38.040Z,14.82
2023-03-05T19:45:06.330Z,9.00
2023-03-05T19:47:32.953Z,9.05
2023-03-05T19:49:59.524Z,13.63
2023-03-05T19:52:26.820Z,10.85
2023-03-05T19:54:53.546Z,10.30
2023-03-05T19:57:20.132Z,9.23
2023-03-05T19:59:46.901Z,10.13
2023-03-05T20:02:13.784Z,14.10
2023-03-05T20:04:40.388Z,14.68
2023-03-05T20:07:07.195Z,24.67
2023-03-05T20:09:33.788Z,12.15
2023-03-05T20:12:02.759Z,12.95
2023-03-05T20:14:29.484Z,10.20
2023-03-05T20:16:56.089Z,9.73
2023-03-05T20:19:22.671Z,11.98
2023-03-05T20:21:49.328Z,10.95
2023-03-05T20:24:18.368Z,9.95
2023-03-05T20:26:46.654Z,16.60
2023-03-05T20:29:17.478Z,11.40
2023-03-05T20:31:44.926Z,14.02
2023-03-05T20:34:14.582Z,11.40
2023-03-05T20:36:41.836Z,15.15
2023-03-05T20:39:09.001Z,16.10
2023-03-05T20:41:38.122Z,12.75
2023-03-05T20:44:05.719Z,14.13
2023-03-05T20:46:39.450Z,10.82
2023-03-05T20:49:06.164Z,10.40
2023-03-05T20:51:35.887Z,12.10
2023-03-05T20:54:20.644Z,12.65
2023-03-05T20:56:47.864Z,11.90
2023-03-05T20:59:14.583Z,13.02
2023-03-05T21:01:41.261Z,17.23
2023-03-05T21:04:08.276Z,18.60
2023-03-05T21:06:36.040Z,12.52
2023-03-05T21:09:02.765Z,17.48
2023-03-05T21:11:29.629Z,17.13
2023-03-05T21:13:56.226Z,12.38
2023-03-05T21:16:27.717Z,14.05
2023-03-05T21:18:56.124Z,17.17
2023-03-05T21:21:22.956Z,19.42
2023-03-05T21:23:49.579Z,15.32
2023-03-05T21:26:16.313Z,16.88
2023-03-05T21:28:43.161Z,16.30
2023-03-05T21:31:15.216Z,21.35
2023-03-05T21:33:42.181Z,17.52
2023-03-05T21:36:08.907Z,21.58
2023-03-05T21:38:35.782Z,20.10
2023-03-05T21:41:02.804Z,18.33
2023-03-05T21:43:31.340Z,21.55
2023-03-05T21:45:59.757Z,18.73
2023-03-05T21:48:26.552Z,21.42
2023-03-05T21:50:54.824Z,19.77
2023-03-05T21:53:21.887Z,26.17
2023-03-05T21:56:22.083Z,19.13
2023-03-05T21:58:49.112Z,21.38
2023-03-05T22:01:19.373Z,27.63
2023-03-05T22:03:46.272Z,21.33
2023-03-05T22:06:14.951Z,22.13
2023-03-05T22:08:42.044Z,17.50
2023-03-05T22:11:13.604Z,21.88
2023-03-05T22:13:40.829Z,19.83
2023-03-05T22:16:09.192Z,23.95
2023-03-05T22:18:36.552Z,23.17
2023-03-05T22:21:04.906Z,16.83
2023-03-05T22:23:34.559Z,21.23
2023-03-05T22:26:04.940Z,15.60
2023-03-05T22:28:32.735Z,21.05
2023-03-05T22:30:59.774Z,19.65
2023-03-05T22:33:27.498Z,20.95
2023-03-05T22:35:54.170Z,24.50
2023-03-05T22:38:21.260Z,20.52
2023-03-05T22:40:49.356Z,17.73
2023-03-05T22:43:17.195Z,22.05
2023-03-05T22:45:44.257Z,16.33
2023-03-05T22:48:11.561Z,20.33
2023-03-05T22:50:39.696Z,20.40
2023-03-05T22:53:06.762Z,21.45
2023-03-05T22:55:33.345Z,25.02
2023-03-05T22:58:00.023Z,19.40
2023-03-05T23:00:29.624Z,15.40
2023-03-05T23:02:56.629Z,16.42
2023-03-05T23:05:23.331Z,20.25
2023-03-05T23:07:49.958Z,17.23
2023-03-05T23:10:21.705Z,18.77
2023-03-05T23:12:51.073Z,18.60
2023-03-05T23:15:23.037Z,18.48
2023-03-05T23:17:49.635Z,16.60
2023-03-05T23:20:17.961Z,14.40
2023-03-05T23:22:45.209Z,14.20
2023-03-05T23:25:14.930Z,16.15
2023-03-05T23:27:42.238Z,14.38
2023-03-05T23:30:22.177Z,11.98
2023-03-05T23:32:50.470Z,14.50
2023-03-05T23:35:20.488Z,16.73
2023-03-05T23:37:47.647Z,11.20
2023-03-05T23:40:18.283Z,16.52
2023-03-05T23:42:45.607Z,8.07
2023-03-05T23:45:14.419Z,16.35
2023-03-05T23:47:41.667Z,8.90
2023-03-05T23:50:14.793Z,5.82
2023-03-05T23:52:43.148Z,6.25
2023-03-05T23:55:10.111Z,6.88
2023-03-05T23:57:36.778Z,7.05
